sensor_id;sensor_type;location;lat;lon;timestamp;P1;durP1;ratioP1;P2;durP2;ratioP2
18304;SDS011;9278;52.156;21.048;2023-01-31T00:02:31;17.87;;;6.27;;
18304;SDS011;9278;52.156;21.048;2023-01-31T00:05:00;22.97;;;6.67;;
18304;SDS011;9278;52.156;21.048;2023-01-31T00:07:28;15.80;;;5.93;;
18304;SDS011;9278;52.156;21.048;2023-01-31T00:09:57;20.70;;;6.33;;
18304;SDS011;9278;52.156;21.048;2023-01-31T00:12:25;16.27;;;5.67;;
18304;SDS011;9278;52.156;21.048;2023-01-31T00:14:53;15.43;;;6.07;;
18304;SDS011;9278;52.156;21.048;2023-01-31T00:17:21;13.43;;;6.13;;
18304;SDS011;9278;52.156;21.048;2023-01-31T00:19:51;12.07;;;5.80;;
18304;SDS011;9278;52.156;21.048;2023-01-31T00:22:20;16.10;;;6.47;;
18304;SDS011;9278;52.156;21.048;2023-01-31T00:24:48;16.53;;;6.33;;
18304;SDS011;9278;52.156;21.048;2023-01-31T00:27:16;14.50;;;5.57;;
18304;SDS011;9278;52.156;21.048;2023-01-31T00:29:45;17.30;;;5.80;;
18304;SDS011;9278;52.156;21.048;2023-01-31T00:32:15;16.03;;;5.60;;
18304;SDS011;9278;52.156;21.048;2023-01-31T00:34:43;12.60;;;5.33;;
18304;SDS011;9278;52.156;21.048;2023-01-31T00:37:13;14.67;;;6.17;;
18304;SDS011;9278;52.156;21.048;2023-01-31T00:39:41;17.97;;;6.10;;
18304;SDS011;9278;52.156;21.048;2023-01-31T00:42:09;14.57;;;5.50;;
18304;SDS011;9278;52.156;21.048;2023-01-31T00:44:39;15.57;;;6.27;;
18304;SDS011;9278;52.156;21.048;2023-01-31T00:47:07;16.67;;;5.67;;
18304;SDS011;9278;52.156;21.048;2023-01-31T00:49:36;13.63;;;5.57;;
18304;SDS011;9278;52.156;21.048;2023-01-31T00:52:04;13.60;;;5.87;;
18304;SDS011;9278;52.156;21.048;2023-01-31T00:54:34;19.63;;;5.70;;
18304;SDS011;9278;52.156;21.048;2023-01-31T00:57:03;17.63;;;6.30;;
18304;SDS011;9278;52.156;21.048;2023-01-31T00:59:31;17.60;;;5.63;;
18304;SDS011;9278;52.156;21.048;2023-01-31T01:02:00;13.27;;;6.20;;
18304;SDS011;9278;52.156;21.048;2023-01-31T01:04:28;18.07;;;5.80;;
18304;SDS011;9278;52.156;21.048;2023-01-31T01:06:57;16.97;;;5.93;;
18304;SDS011;9278;52.156;21.048;2023-01-31T01:09:25;16.10;;;5.80;;
18304;SDS011;9278;52.156;21.048;2023-01-31T01:11:55;13.87;;;5.40;;
18304;SDS011;9278;52.156;21.048;2023-01-31T01:14:23;12.87;;;5.50;;
18304;SDS011;9278;52.156;21.048;2023-01-31T01:16:51;18.17;;;6.33;;
18304;SDS011;9278;52.156;21.048;2023-01-31T01:19:24;17.87;;;6.63;;
18304;SDS011;9278;52.156;21.048;2023-01-31T01:21:53;16.93;;;6.53;;
18304;SDS011;9278;52.156;21.048;2023-01-31T01:24:23;19.10;;;6.17;;
18304;SDS011;9278;52.156;21.048;2023-01-31T01:26:51;16.97;;;5.57;;
18304;SDS011;9278;52.156;21.048;2023-01-31T01:29:21;15.50;;;6.50;;
18304;SDS011;9278;52.156;21.048;2023-01-31T01:31:49;15.43;;;5.87;;
18304;SDS011;9278;52.156;21.048;2023-01-31T01:34:17;14.57;;;6.13;;
18304;SDS011;9278;52.156;21.048;2023-01-31T01:36:46;14.80;;;5.90;;
18304;SDS011;9278;52.156;21.048;2023-01-31T01:39:14;16.47;;;6.07;;
18304;SDS011;9278;52.156;21.048;2023-01-31T01:41:43;14.67;;;5.50;;
18304;SDS011;9278;52.156;21.048;2023-01-31T01:47:17;14.73;;;5.37;;
18304;SDS011;9278;52.156;21.048;2023-01-31T01:49:59;18.03;;;5.70;;
18304;SDS011;9278;52.156;21.048;2023-01-31T01:52:32;18.17;;;5.30;;
18304;SDS011;9278;52.156;21.048;2023-01-31T01:55:15;12.43;;;5.70;;
18304;SDS011;9278;52.156;21.048;2023-01-31T01:57:49;14.00;;;5.73;;
18304;SDS011;9278;52.156;21.048;2023-01-31T02:00:22;13.77;;;5.73;;
18304;SDS011;9278;52.156;21.048;2023-01-31T02:02:55;19.13;;;6.33;;
18304;SDS011;9278;52.156;21.048;2023-01-31T02:05:27;16.57;;;6.27;;
18304;SDS011;9278;52.156;21.048;2023-01-31T02:07:58;16.43;;;6.23;;
18304;SDS011;9278;52.156;21.048;2023-01-31T02:10:29;24.00;;;6.83;;
18304;SDS011;9278;52.156;21.048;2023-01-31T02:13:05;24.00;;;6.43;;
18304;SDS011;9278;52.156;21.048;2023-01-31T02:15:34;15.20;;;6.13;;
18304;SDS011;9278;52.156;21.048;2023-01-31T02:18:03;20.53;;;5.90;;
18304;SDS011;9278;52.156;21.048;2023-01-31T02:20:38;16.83;;;5.90;;
18304;SDS011;9278;52.156;21.048;2023-01-31T02:29:53;18.20;;;6.17;;
18304;SDS011;9278;52.156;21.048;2023-01-31T02:32:48;18.07;;;5.33;;
18304;SDS011;9278;52.156;21.048;2023-01-31T02:35:32;19.00;;;5.87;;
18304;SDS011;9278;52.156;21.048;2023-01-31T02:38:13;19.00;;;5.83;;
18304;SDS011;9278;52.156;21.048;2023-01-31T02:40:51;16.13;;;5.33;;
18304;SDS011;9278;52.156;21.048;2023-01-31T02:43:31;21.67;;;5.40;;
18304;SDS011;9278;52.156;21.048;2023-01-31T02:46:33;16.77;;;5.40;;
18304;SDS011;9278;52.156;21.048;2023-01-31T02:49:07;20.40;;;5.47;;
18304;SDS011;9278;52.156;21.048;2023-01-31T02:52:06;15.93;;;5.33;;
18304;SDS011;9278;52.156;21.048;2023-01-31T02:54:50;19.47;;;5.10;;
18304;SDS011;9278;52.156;21.048;2023-01-31T02:57:42;14.00;;;5.03;;
18304;SDS011;9278;52.156;21.048;2023-01-31T03:00:12;19.70;;;5.60;;
18304;SDS011;9278;52.156;21.048;2023-01-31T03:02:41;15.67;;;4.90;;
18304;SDS011;9278;52.156;21.048;2023-01-31T03:05:12;14.90;;;4.93;;
18304;SDS011;9278;52.156;21.048;2023-01-31T03:07:42;14.57;;;4.10;;
18304;SDS011;9278;52.156;21.048;2023-01-31T03:10:24;16.53;;;4.80;;
18304;SDS011;9278;52.156;21.048;2023-01-31T03:13:10;14.47;;;4.33;;
18304;SDS011;9278;52.156;21.048;2023-01-31T03:16:01;18.20;;;4.27;;
18304;SDS011;9278;52.156;21.048;2023-01-31T03:18:53;18.50;;;5.90;;
18304;SDS011;9278;52.156;21.048;2023-01-31T03:21:31;16.77;;;5.03;;
18304;SDS011;9278;52.156;21.048;2023-01-31T03:24:04;24.00;;;4.60;;
18304;SDS011;9278;52.156;21.048;2023-01-31T03:26:33;17.10;;;4.70;;
18304;SDS011;9278;52.156;21.048;2023-01-31T03:29:02;19.33;;;5.20;;
18304;SDS011;9278;52.156;21.048;2023-01-31T03:31:35;17.03;;;4.50;;
18304;SDS011;9278;52.156;21.048;2023-01-31T03:34:07;21.87;;;4.23;;
18304;SDS011;9278;52.156;21.048;2023-01-31T03:36:41;18.27;;;4.20;;
18304;SDS011;9278;52.156;21.048;2023-01-31T03:39:37;17.63;;;4.45;;
18304;SDS011;9278;52.156;21.048;2023-01-31T03:42:12;15.37;;;4.70;;
18304;SDS011;9278;52.156;21.048;2023-01-31T03:44:45;14.95;;;3.45;;
18304;SDS011;9278;52.156;21.048;2023-01-31T03:47:22;15.95;;;3.95;;
18304;SDS011;9278;52.156;21.048;2023-01-31T03:49:56;18.17;;;4.23;;
18304;SDS011;9278;52.156;21.048;2023-01-31T03:52:32;17.63;;;3.85;;
18304;SDS011;9278;52.156;21.048;2023-01-31T03:55:06;16.13;;;3.90;;
18304;SDS011;9278;52.156;21.048;2023-01-31T03:57:37;18.80;;;3.83;;
18304;SDS011;9278;52.156;21.048;2023-01-31T04:00:10;21.90;;;4.60;;
18304;SDS011;9278;52.156;21.048;2023-01-31T04:02:48;22.30;;;3.90;;
18304;SDS011;9278;52.156;21.048;2023-01-31T04:05:21;14.53;;;3.73;;
18304;SDS011;9278;52.156;21.048;2023-01-31T04:07:57;16.53;;;3.53;;
18304;SDS011;9278;52.156;21.048;2023-01-31T04:10:28;18.53;;;3.80;;
18304;SDS011;9278;52.156;21.048;2023-01-31T04:12:57;20.33;;;3.23;;
18304;SDS011;9278;52.156;21.048;2023-01-31T04:15:26;22.07;;;3.40;;
18304;SDS011;9278;52.156;21.048;2023-01-31T04:17:55;17.53;;;3.50;;
18304;SDS011;9278;52.156;21.048;2023-01-31T04:20:23;24.23;;;3.63;;
18304;SDS011;9278;52.156;21.048;2023-01-31T04:22:51;16.50;;;3.63;;
18304;SDS011;9278;52.156;21.048;2023-01-31T04:25:21;19.70;;;3.80;;
18304;SDS011;9278;52.156;21.048;2023-01-31T04:27:49;19.30;;;3.67;;
18304;SDS011;9278;52.156;21.048;2023-01-31T04:30:17;21.50;;;3.37;;
18304;SDS011;9278;52.156;21.048;2023-01-31T04:32:46;22.67;;;4.07;;
18304;SDS011;9278;52.156;21.048;2023-01-31T04:35:14;15.10;;;3.10;;
18304;SDS011;9278;52.156;21.048;2023-01-31T04:37:42;20.50;;;3.50;;
18304;SDS011;9278;52.156;21.048;2023-01-31T04:40:11;19.93;;;3.47;;
18304;SDS011;9278;52.156;21.048;2023-01-31T04:42:41;17.73;;;3.40;;
18304;SDS011;9278;52.156;21.048;2023-01-31T04:45:10;25.03;;;4.03;;
18304;SDS011;9278;52.156;21.048;2023-01-31T04:47:38;18.70;;;3.57;;
18304;SDS011;9278;52.156;21.048;2023-01-31T04:50:07;17.13;;;3.43;;
18304;SDS011;9278;52.156;21.048;2023-01-31T04:52:36;18.53;;;3.33;;
18304;SDS011;9278;52.156;21.048;2023-01-31T04:55:04;11.80;;;3.03;;
18304;SDS011;9278;52.156;21.048;2023-01-31T04:57:33;20.47;;;3.33;;
18304;SDS011;9278;52.156;21.048;2023-01-31T05:00:03;19.47;;;4.63;;
18304;SDS011;9278;52.156;21.048;2023-01-31T05:02:50;18.50;;;3.67;;
18304;SDS011;9278;52.156;21.048;2023-01-31T05:05:19;12.03;;;2.90;;
18304;SDS011;9278;52.156;21.048;2023-01-31T05:07:47;18.50;;;3.60;;
18304;SDS011;9278;52.156;21.048;2023-01-31T05:10:16;24.00;;;3.50;;
18304;SDS011;9278;52.156;21.048;2023-01-31T05:12:45;17.53;;;3.17;;
18304;SDS011;9278;52.156;21.048;2023-01-31T05:15:14;23.70;;;2.87;;
18304;SDS011;9278;52.156;21.048;2023-01-31T05:17:43;19.73;;;3.33;;
18304;SDS011;9278;52.156;21.048;2023-01-31T05:20:13;23.27;;;3.70;;
18304;SDS011;9278;52.156;21.048;2023-01-31T05:22:42;16.23;;;2.90;;
18304;SDS011;9278;52.156;21.048;2023-01-31T05:25:13;25.43;;;3.40;;
18304;SDS011;9278;52.156;21.048;2023-01-31T05:27:42;15.93;;;3.00;;
18304;SDS011;9278;52.156;21.048;2023-01-31T05:30:11;21.77;;;3.73;;
18304;SDS011;9278;52.156;21.048;2023-01-31T05:32:41;16.00;;;3.20;;
18304;SDS011;9278;52.156;21.048;2023-01-31T05:35:11;16.97;;;2.50;;
18304;SDS011;9278;52.156;21.048;2023-01-31T05:37:39;19.53;;;3.00;;
18304;SDS011;9278;52.156;21.048;2023-01-31T05:40:08;21.80;;;3.47;;
18304;SDS011;9278;52.156;21.048;2023-01-31T05:42:38;16.60;;;2.80;;
18304;SDS011;9278;52.156;21.048;2023-01-31T05:45:07;15.27;;;3.00;;
18304;SDS011;9278;52.156;21.048;2023-01-31T05:47:36;21.70;;;3.37;;
18304;SDS011;9278;52.156;21.048;2023-01-31T05:50:06;20.63;;;3.03;;
18304;SDS011;9278;52.156;21.048;2023-01-31T05:52:35;19.80;;;2.97;;
18304;SDS011;9278;52.156;21.048;2023-01-31T05:55:04;16.33;;;2.67;;
18304;SDS011;9278;52.156;21.048;2023-01-31T05:57:32;14.17;;;2.33;;
18304;SDS011;9278;52.156;21.048;2023-01-31T06:00:01;13.97;;;2.63;;
18304;SDS011;9278;52.156;21.048;2023-01-31T06:02:37;15.90;;;2.50;;
18304;SDS011;9278;52.156;21.048;2023-01-31T06:05:07;14.55;;;2.90;;
18304;SDS011;9278;52.156;21.048;2023-01-31T06:07:36;18.77;;;3.15;;
18304;SDS011;9278;52.156;21.048;2023-01-31T06:10:06;25.60;;;3.15;;
18304;SDS011;9278;52.156;21.048;2023-01-31T06:12:36;18.93;;;2.93;;
18304;SDS011;9278;52.156;21.048;2023-01-31T06:15:05;16.33;;;3.30;;
18304;SDS011;9278;52.156;21.048;2023-01-31T06:17:34;16.40;;;2.97;;
18304;SDS011;9278;52.156;21.048;2023-01-31T06:20:02;21.13;;;2.83;;
18304;SDS011;9278;52.156;21.048;2023-01-31T06:22:33;17.03;;;2.73;;
18304;SDS011;9278;52.156;21.048;2023-01-31T06:25:01;10.57;;;2.80;;
18304;SDS011;9278;52.156;21.048;2023-01-31T06:27:30;20.65;;;2.83;;
18304;SDS011;9278;52.156;21.048;2023-01-31T06:29:59;20.05;;;3.33;;
18304;SDS011;9278;52.156;21.048;2023-01-31T06:32:28;14.02;;;3.10;;
18304;SDS011;9278;52.156;21.048;2023-01-31T06:34:57;16.87;;;3.03;;
18304;SDS011;9278;52.156;21.048;2023-01-31T06:37:25;14.80;;;3.13;;
18304;SDS011;9278;52.156;21.048;2023-01-31T06:39:54;16.90;;;3.70;;
18304;SDS011;9278;52.156;21.048;2023-01-31T06:42:23;14.40;;;2.83;;
18304;SDS011;9278;52.156;21.048;2023-01-31T06:44:51;21.45;;;3.38;;
18304;SDS011;9278;52.156;21.048;2023-01-31T06:47:20;15.67;;;3.27;;
18304;SDS011;9278;52.156;21.048;2023-01-31T06:49:48;17.10;;;3.33;;
18304;SDS011;9278;52.156;21.048;2023-01-31T06:52:16;14.50;;;3.43;;
18304;SDS011;9278;52.156;21.048;2023-01-31T06:54:44;15.50;;;3.42;;
18304;SDS011;9278;52.156;21.048;2023-01-31T06:57:14;22.70;;;3.40;;
18304;SDS011;9278;52.156;21.048;2023-01-31T06:59:42;15.68;;;3.58;;
18304;SDS011;9278;52.156;21.048;2023-01-31T07:02:10;16.73;;;3.45;;
18304;SDS011;9278;52.156;21.048;2023-01-31T07:04:39;20.92;;;3.70;;
18304;SDS011;9278;52.156;21.048;2023-01-31T07:07:07;15.88;;;3.40;;
18304;SDS011;9278;52.156;21.048;2023-01-31T07:09:35;19.63;;;3.67;;
18304;SDS011;9278;52.156;21.048;2023-01-31T07:12:04;17.52;;;3.35;;
18304;SDS011;9278;52.156;21.048;2023-01-31T07:14:33;14.18;;;3.35;;
18304;SDS011;9278;52.156;21.048;2023-01-31T07:17:02;19.97;;;3.70;;
18304;SDS011;9278;52.156;21.048;2023-01-31T07:19:30;20.73;;;3.50;;
18304;SDS011;9278;52.156;21.048;2023-01-31T07:21:59;17.90;;;3.80;;
18304;SDS011;9278;52.156;21.048;2023-01-31T07:24:27;17.97;;;3.73;;
18304;SDS011;9278;52.156;21.048;2023-01-31T07:26:55;16.83;;;3.67;;
18304;SDS011;9278;52.156;21.048;2023-01-31T07:29:23;19.37;;;3.70;;
18304;SDS011;9278;52.156;21.048;2023-01-31T07:31:54;15.07;;;4.00;;
18304;SDS011;9278;52.156;21.048;2023-01-31T07:34:23;17.43;;;3.80;;
18304;SDS011;9278;52.156;21.048;2023-01-31T07:36:51;17.57;;;3.73;;
18304;SDS011;9278;52.156;21.048;2023-01-31T07:39:19;20.40;;;3.60;;
18304;SDS011;9278;52.156;21.048;2023-01-31T07:41:47;19.53;;;3.73;;
18304;SDS011;9278;52.156;21.048;2023-01-31T07:44:16;18.87;;;3.57;;
18304;SDS011;9278;52.156;21.048;2023-01-31T07:46:44;15.80;;;3.27;;
18304;SDS011;9278;52.156;21.048;2023-01-31T07:49:14;18.90;;;3.33;;
18304;SDS011;9278;52.156;21.048;2023-01-31T07:51:42;20.60;;;3.40;;
18304;SDS011;9278;52.156;21.048;2023-01-31T07:54:10;21.33;;;3.37;;
18304;SDS011;9278;52.156;21.048;2023-01-31T07:56:39;18.27;;;3.47;;
18304;SDS011;9278;52.156;21.048;2023-01-31T07:59:07;12.97;;;2.70;;
18304;SDS011;9278;52.156;21.048;2023-01-31T08:01:35;17.77;;;3.10;;
18304;SDS011;9278;52.156;21.048;2023-01-31T08:04:23;16.07;;;3.07;;
18304;SDS011;9278;52.156;21.048;2023-01-31T08:06:51;14.87;;;3.07;;
18304;SDS011;9278;52.156;21.048;2023-01-31T08:09:22;13.43;;;3.30;;
18304;SDS011;9278;52.156;21.048;2023-01-31T08:11:51;21.52;;;3.78;;
18304;SDS011;9278;52.156;21.048;2023-01-31T08:14:19;17.75;;;3.25;;
18304;SDS011;9278;52.156;21.048;2023-01-31T08:16:50;23.55;;;3.15;;
18304;SDS011;9278;52.156;21.048;2023-01-31T08:19:19;17.08;;;3.15;;
18304;SDS011;9278;52.156;21.048;2023-01-31T08:21:48;17.77;;;3.35;;
18304;SDS011;9278;52.156;21.048;2023-01-31T08:24:16;17.10;;;3.25;;
18304;SDS011;9278;52.156;21.048;2023-01-31T08:26:45;15.00;;;3.13;;
18304;SDS011;9278;52.156;21.048;2023-01-31T08:29:13;17.43;;;2.97;;
18304;SDS011;9278;52.156;21.048;2023-01-31T08:31:41;20.03;;;3.60;;
18304;SDS011;9278;52.156;21.048;2023-01-31T08:34:10;19.80;;;3.43;;
18304;SDS011;9278;52.156;21.048;2023-01-31T08:36:38;15.52;;;3.40;;
18304;SDS011;9278;52.156;21.048;2023-01-31T08:39:08;13.27;;;3.63;;
18304;SDS011;9278;52.156;21.048;2023-01-31T08:41:37;15.10;;;3.03;;
18304;SDS011;9278;52.156;21.048;2023-01-31T08:44:06;17.07;;;3.40;;
18304;SDS011;9278;52.156;21.048;2023-01-31T08:46:35;17.95;;;2.95;;
18304;SDS011;9278;52.156;21.048;2023-01-31T08:49:04;12.73;;;3.03;;
18304;SDS011;9278;52.156;21.048;2023-01-31T08:51:34;18.67;;;3.42;;
18304;SDS011;9278;52.156;21.048;2023-01-31T08:54:02;14.05;;;3.13;;
18304;SDS011;9278;52.156;21.048;2023-01-31T08:56:32;17.23;;;3.63;;
18304;SDS011;9278;52.156;21.048;2023-01-31T08:59:00;14.07;;;3.13;;
18304;SDS011;9278;52.156;21.048;2023-01-31T09:01:28;14.77;;;3.00;;
18304;SDS011;9278;52.156;21.048;2023-01-31T09:03:58;15.30;;;3.17;;
18304;SDS011;9278;52.156;21.048;2023-01-31T09:06:26;14.80;;;3.50;;
18304;SDS011;9278;52.156;21.048;2023-01-31T09:08:55;18.15;;;3.20;;
18304;SDS011;9278;52.156;21.048;2023-01-31T09:11:26;18.33;;;3.88;;
18304;SDS011;9278;52.156;21.048;2023-01-31T09:13:57;13.57;;;2.83;;
18304;SDS011;9278;52.156;21.048;2023-01-31T09:16:25;18.10;;;2.75;;
18304;SDS011;9278;52.156;21.048;2023-01-31T09:18:54;15.02;;;2.58;;
18304;SDS011;9278;52.156;21.048;2023-01-31T09:21:23;17.77;;;3.23;;
18304;SDS011;9278;52.156;21.048;2023-01-31T09:23:55;14.30;;;3.20;;
18304;SDS011;9278;52.156;21.048;2023-01-31T09:26:24;23.80;;;3.10;;
18304;SDS011;9278;52.156;21.048;2023-01-31T09:28:53;10.43;;;2.90;;
18304;SDS011;9278;52.156;21.048;2023-01-31T09:31:24;12.90;;;3.03;;
18304;SDS011;9278;52.156;21.048;2023-01-31T09:33:53;18.33;;;2.92;;
18304;SDS011;9278;52.156;21.048;2023-01-31T09:36:22;18.60;;;3.25;;
18304;SDS011;9278;52.156;21.048;2023-01-31T09:38:52;10.37;;;2.40;;
18304;SDS011;9278;52.156;21.048;2023-01-31T09:41:24;16.00;;;3.33;;
18304;SDS011;9278;52.156;21.048;2023-01-31T09:43:57;14.23;;;3.23;;
18304;SDS011;9278;52.156;21.048;2023-01-31T09:46:32;13.50;;;2.97;;
18304;SDS011;9278;52.156;21.048;2023-01-31T09:49:04;14.60;;;2.92;;
18304;SDS011;9278;52.156;21.048;2023-01-31T09:51:37;19.45;;;2.92;;
18304;SDS011;9278;52.156;21.048;2023-01-31T09:54:15;21.17;;;2.92;;
18304;SDS011;9278;52.156;21.048;2023-01-31T09:56:50;20.50;;;3.53;;
18304;SDS011;9278;52.156;21.048;2023-01-31T09:59:28;15.57;;;3.07;;
18304;SDS011;9278;52.156;21.048;2023-01-31T10:02:08;15.13;;;3.30;;
18304;SDS011;9278;52.156;21.048;2023-01-31T10:04:48;15.00;;;3.33;;
18304;SDS011;9278;52.156;21.048;2023-01-31T10:07:31;19.85;;;3.40;;
18304;SDS011;9278;52.156;21.048;2023-01-31T10:10:04;15.77;;;3.45;;
18304;SDS011;9278;52.156;21.048;2023-01-31T10:12:41;20.08;;;3.53;;
18304;SDS011;9278;52.156;21.048;2023-01-31T10:15:15;17.70;;;3.53;;
18304;SDS011;9278;52.156;21.048;2023-01-31T10:17:53;17.13;;;3.30;;
18304;SDS011;9278;52.156;21.048;2023-01-31T10:20:29;14.52;;;3.20;;
18304;SDS011;9278;52.156;21.048;2023-01-31T10:23:03;15.18;;;4.00;;
18304;SDS011;9278;52.156;21.048;2023-01-31T10:25:39;13.32;;;2.90;;
18304;SDS011;9278;52.156;21.048;2023-01-31T10:28:14;10.40;;;2.53;;
18304;SDS011;9278;52.156;21.048;2023-01-31T10:30:52;18.42;;;3.25;;
18304;SDS011;9278;52.156;21.048;2023-01-31T10:33:27;13.38;;;2.70;;
18304;SDS011;9278;52.156;21.048;2023-01-31T10:36:03;19.85;;;3.75;;
18304;SDS011;9278;52.156;21.048;2023-01-31T10:38:38;11.48;;;2.55;;
18304;SDS011;9278;52.156;21.048;2023-01-31T10:41:16;12.02;;;2.80;;
18304;SDS011;9278;52.156;21.048;2023-01-31T10:43:50;16.73;;;2.85;;
18304;SDS011;9278;52.156;21.048;2023-01-31T10:46:26;13.60;;;2.75;;
18304;SDS011;9278;52.156;21.048;2023-01-31T10:48:56;13.55;;;3.00;;
18304;SDS011;9278;52.156;21.048;2023-01-31T10:51:31;12.25;;;2.30;;
18304;SDS011;9278;52.156;21.048;2023-01-31T10:54:18;11.90;;;2.20;;
18304;SDS011;9278;52.156;21.048;2023-01-31T10:56:56;10.20;;;2.58;;
18304;SDS011;9278;52.156;21.048;2023-01-31T10:59:26;15.27;;;2.57;;
18304;SDS011;9278;52.156;21.048;2023-01-31T11:01:58;14.65;;;2.72;;
18304;SDS011;9278;52.156;21.048;2023-01-31T11:04:30;15.88;;;2.40;;
18304;SDS011;9278;52.156;21.048;2023-01-31T11:07:01;18.77;;;3.10;;
18304;SDS011;9278;52.156;21.048;2023-01-31T11:09:31;17.85;;;3.20;;
18304;SDS011;9278;52.156;21.048;2023-01-31T11:12:02;12.38;;;2.95;;
18304;SDS011;9278;52.156;21.048;2023-01-31T11:14:32;14.10;;;2.63;;
18304;SDS011;9278;52.156;21.048;2023-01-31T11:17:03;10.45;;;2.70;;
18304;SDS011;9278;52.156;21.048;2023-01-31T11:19:36;12.82;;;2.38;;
18304;SDS011;9278;52.156;21.048;2023-01-31T11:22:20;15.45;;;2.50;;
18304;SDS011;9278;52.156;21.048;2023-01-31T11:24:51;17.10;;;2.72;;
18304;SDS011;9278;52.156;21.048;2023-01-31T11:27:23;14.32;;;3.22;;
18304;SDS011;9278;52.156;21.048;2023-01-31T11:29:54;11.35;;;2.40;;
18304;SDS011;9278;52.156;21.048;2023-01-31T11:32:26;9.40;;;2.13;;
18304;SDS011;9278;52.156;21.048;2023-01-31T11:34:59;10.48;;;2.72;;
18304;SDS011;9278;52.156;21.048;2023-01-31T11:37:29;14.45;;;2.53;;
18304;SDS011;9278;52.156;21.048;2023-01-31T11:40:00;21.33;;;2.50;;
18304;SDS011;9278;52.156;21.048;2023-01-31T11:42:31;18.52;;;2.55;;
18304;SDS011;9278;52.156;21.048;2023-01-31T11:44:59;13.73;;;3.17;;
18304;SDS011;9278;52.156;21.048;2023-01-31T11:47:33;10.15;;;2.63;;
18304;SDS011;9278;52.156;21.048;2023-01-31T11:50:10;14.15;;;2.72;;
18304;SDS011;9278;52.156;21.048;2023-01-31T11:52:52;11.07;;;2.70;;
18304;SDS011;9278;52.156;21.048;2023-01-31T11:55:21;16.08;;;2.70;;
18304;SDS011;9278;52.156;21.048;2023-01-31T11:57:55;12.30;;;3.00;;
18304;SDS011;9278;52.156;21.048;2023-01-31T12:00:26;21.15;;;3.00;;
18304;SDS011;9278;52.156;21.048;2023-01-31T12:03:00;19.58;;;3.20;;
18304;SDS011;9278;52.156;21.048;2023-01-31T12:05:36;24.65;;;3.35;;
18304;SDS011;9278;52.156;21.048;2023-01-31T12:10:58;14.75;;;3.40;;
18304;SDS011;9278;52.156;21.048;2023-01-31T12:13:30;16.02;;;3.70;;
18304;SDS011;9278;52.156;21.048;2023-01-31T12:15:59;12.68;;;3.45;;
18304;SDS011;9278;52.156;21.048;2023-01-31T12:18:38;16.38;;;3.40;;
18304;SDS011;9278;52.156;21.048;2023-01-31T12:21:23;16.98;;;3.45;;
18304;SDS011;9278;52.156;21.048;2023-01-31T12:23:59;11.80;;;3.45;;
18304;SDS011;9278;52.156;21.048;2023-01-31T12:26:37;12.98;;;3.65;;
18304;SDS011;9278;52.156;21.048;2023-01-31T12:29:18;15.68;;;4.03;;
18304;SDS011;9278;52.156;21.048;2023-01-31T12:32:05;15.98;;;2.97;;
18304;SDS011;9278;52.156;21.048;2023-01-31T12:34:55;14.90;;;3.47;;
18304;SDS011;9278;52.156;21.048;2023-01-31T12:37:39;13.50;;;3.25;;
18304;SDS011;9278;52.156;21.048;2023-01-31T12:40:22;17.33;;;3.05;;
18304;SDS011;9278;52.156;21.048;2023-01-31T12:43:10;9.65;;;3.13;;
18304;SDS011;9278;52.156;21.048;2023-01-31T12:45:54;11.52;;;2.13;;
18304;SDS011;9278;52.156;21.048;2023-01-31T12:51:38;10.40;;;2.78;;
18304;SDS011;9278;52.156;21.048;2023-01-31T12:54:21;13.35;;;2.70;;
18304;SDS011;9278;52.156;21.048;2023-01-31T12:57:04;10.93;;;2.67;;
18304;SDS011;9278;52.156;21.048;2023-01-31T12:59:46;12.95;;;2.60;;
18304;SDS011;9278;52.156;21.048;2023-01-31T13:02:24;11.57;;;2.83;;
18304;SDS011;9278;52.156;21.048;2023-01-31T13:05:01;10.10;;;2.58;;
18304;SDS011;9278;52.156;21.048;2023-01-31T13:07:37;10.40;;;2.30;;
18304;SDS011;9278;52.156;21.048;2023-01-31T13:10:19;13.23;;;2.25;;
18304;SDS011;9278;52.156;21.048;2023-01-31T13:12:59;9.07;;;2.03;;
18304;SDS011;9278;52.156;21.048;2023-01-31T13:15:30;10.73;;;2.58;;
18304;SDS011;9278;52.156;21.048;2023-01-31T13:18:07;9.02;;;2.53;;
18304;SDS011;9278;52.156;21.048;2023-01-31T13:20:38;11.68;;;2.90;;
18304;SDS011;9278;52.156;21.048;2023-01-31T13:23:11;14.73;;;2.17;;
18304;SDS011;9278;52.156;21.048;2023-01-31T13:25:45;11.13;;;2.17;;
18304;SDS011;9278;52.156;21.048;2023-01-31T13:28:18;15.07;;;2.65;;
18304;SDS011;9278;52.156;21.048;2023-01-31T13:30:50;8.25;;;2.33;;
18304;SDS011;9278;52.156;21.048;2023-01-31T13:33:23;10.95;;;2.50;;
18304;SDS011;9278;52.156;21.048;2023-01-31T13:36:02;17.30;;;2.63;;
18304;SDS011;9278;52.156;21.048;2023-01-31T13:38:36;8.07;;;2.22;;
18304;SDS011;9278;52.156;21.048;2023-01-31T13:41:10;10.38;;;2.67;;
18304;SDS011;9278;52.156;21.048;2023-01-31T13:43:44;8.32;;;2.60;;
18304;SDS011;9278;52.156;21.048;2023-01-31T13:46:12;10.82;;;2.58;;
18304;SDS011;9278;52.156;21.048;2023-01-31T13:48:46;13.07;;;2.40;;
18304;SDS011;9278;52.156;21.048;2023-01-31T13:51:19;14.23;;;2.67;;
18304;SDS011;9278;52.156;21.048;2023-01-31T13:53:53;13.60;;;2.65;;
18304;SDS011;9278;52.156;21.048;2023-01-31T13:56:27;9.82;;;2.63;;
18304;SDS011;9278;52.156;21.048;2023-01-31T13:58:58;10.65;;;2.85;;
18304;SDS011;9278;52.156;21.048;2023-01-31T14:01:29;13.23;;;3.13;;
18304;SDS011;9278;52.156;21.048;2023-01-31T14:04:20;15.68;;;3.20;;
18304;SDS011;9278;52.156;21.048;2023-01-31T14:06:55;10.05;;;3.22;;
18304;SDS011;9278;52.156;21.048;2023-01-31T14:09:42;13.00;;;4.00;;
18304;SDS011;9278;52.156;21.048;2023-01-31T14:12:30;15.43;;;3.00;;
18304;SDS011;9278;52.156;21.048;2023-01-31T14:15:00;14.47;;;3.37;;
18304;SDS011;9278;52.156;21.048;2023-01-31T14:20:26;12.27;;;3.10;;
18304;SDS011;9278;52.156;21.048;2023-01-31T14:26:01;13.80;;;3.40;;
18304;SDS011;9278;52.156;21.048;2023-01-31T14:28:31;11.40;;;4.13;;
18304;SDS011;9278;52.156;21.048;2023-01-31T14:30:59;17.15;;;3.97;;
18304;SDS011;9278;52.156;21.048;2023-01-31T14:33:39;14.27;;;3.77;;
18304;SDS011;9278;52.156;21.048;2023-01-31T14:36:25;11.48;;;3.60;;
18304;SDS011;9278;52.156;21.048;2023-01-31T14:42:12;15.13;;;4.17;;
18304;SDS011;9278;52.156;21.048;2023-01-31T14:44:58;17.93;;;4.33;;
18304;SDS011;9278;52.156;21.048;2023-01-31T14:47:41;12.77;;;3.72;;
18304;SDS011;9278;52.156;21.048;2023-01-31T14:50:38;15.48;;;4.03;;
18304;SDS011;9278;52.156;21.048;2023-01-31T14:53:30;14.68;;;4.25;;
18304;SDS011;9278;52.156;21.048;2023-01-31T14:56:17;17.63;;;4.05;;
18304;SDS011;9278;52.156;21.048;2023-01-31T14:59:00;16.67;;;4.60;;
18304;SDS011;9278;52.156;21.048;2023-01-31T15:01:31;18.50;;;4.95;;
18304;SDS011;9278;52.156;21.048;2023-01-31T15:04:03;15.70;;;4.67;;
18304;SDS011;9278;52.156;21.048;2023-01-31T15:06:33;14.60;;;3.93;;
18304;SDS011;9278;52.156;21.048;2023-01-31T15:09:16;21.20;;;4.93;;
18304;SDS011;9278;52.156;21.048;2023-01-31T15:11:55;17.23;;;4.43;;
18304;SDS011;9278;52.156;21.048;2023-01-31T15:14:25;20.52;;;4.90;;
18304;SDS011;9278;52.156;21.048;2023-01-31T15:17:07;17.87;;;4.87;;
18304;SDS011;9278;52.156;21.048;2023-01-31T15:20:00;15.07;;;4.27;;
18304;SDS011;9278;52.156;21.048;2023-01-31T15:22:40;17.43;;;4.47;;
18304;SDS011;9278;52.156;21.048;2023-01-31T15:25:17;18.53;;;5.27;;
18304;SDS011;9278;52.156;21.048;2023-01-31T15:27:50;19.27;;;4.70;;
18304;SDS011;9278;52.156;21.048;2023-01-31T15:30:21;16.20;;;4.87;;
18304;SDS011;9278;52.156;21.048;2023-01-31T15:32:55;17.87;;;4.23;;
18304;SDS011;9278;52.156;21.048;2023-01-31T15:35:26;20.40;;;4.97;;